Time;durP1;ratioP1;P1;durP2;ratioP2;P2;SDS_P1;SDS_P2;PMS_P1;PMS_P2;Temp;Humidity;BMP_temperature;BMP_pressure;BME280_temperature;BME280_humidity;BME280_pressure;Samples;Min_cycle;Max_cycle;Signal;HPM_P1;HPM_P2
2022/10/20 00:01:56;;;;;;;14.43;8.13;;;6.30;99.90;;;;;;4981241;28;20058;-76
2022/10/20 00:04:21;;;;;;;11.75;8.30;;;6.30;99.90;;;;;;4971378;28;20022;-76
2022/10/20 00:06:47;;;;;;;12.20;7.03;;;6.20;99.90;;;;;;4966912;28;20053;-76
2022/10/20 00:09:12;;;;;;;12.80;7.63;;;6.20;99.90;;;;;;4965689;28;20034;-76
2022/10/20 00:11:38;;;;;;;14.10;7.60;;;6.20;99.90;;;;;;4946640;28;20037;-76
2022/10/20 00:14:04;;;;;;;14.32;8.05;;;6.30;99.90;;;;;;4964489;28;20034;-76
2022/10/20 00:16:30;;;;;;;15.48;8.63;;;6.10;99.90;;;;;;4981753;28;20085;-77
2022/10/20 00:18:56;;;;;;;14.73;7.63;;;6.20;99.90;;;;;;4965134;28;20111;-76
2022/10/20 00:21:23;;;;;;;11.35;7.55;;;6.10;99.90;;;;;;4964889;28;20042;-76
2022/10/20 00:23:49;;;;;;;17.17;8.88;;;6.10;99.90;;;;;;4961887;28;20034;-76
2022/10/20 00:26:22;;;;;;;15.05;8.52;;;6.10;99.90;;;;;;4964451;28;20034;-76
2022/10/20 00:28:48;;;;;;;14.25;9.15;;;6.00;99.90;;;;;;4935027;28;20049;-76
2022/10/20 00:31:13;;;;;;;17.05;9.02;;;6.10;99.90;;;;;;4952546;28;20026;-76
2022/10/20 00:33:39;;;;;;;23.13;8.88;;;6.10;99.90;;;;;;4978060;28;20038;-76
2022/10/20 00:36:06;;;;;;;15.48;8.52;;;6.00;99.90;;;;;;4946226;28;20513;-76
2022/10/20 00:38:32;;;;;;;16.60;9.00;;;6.00;99.90;;;;;;4949454;28;20040;-76
2022/10/20 00:41:02;;;;;;;22.63;8.70;;;6.00;99.90;;;;;;4966009;28;20121;-76
2022/10/20 00:43:50;;;;;;;14.93;8.77;;;6.00;99.90;;;;;;4963412;28;20026;-77
2022/10/20 00:46:18;;;;;;;19.00;9.15;;;6.10;99.90;;;;;;4964344;28;20042;-76
2022/10/20 00:48:46;;;;;;;17.30;8.75;;;6.10;99.90;;;;;;4965619;28;20568;-76
2022/10/20 00:51:13;;;;;;;17.33;10.05;;;6.00;99.90;;;;;;4936523;28;20505;-76
2022/10/20 00:53:38;;;;;;;13.48;8.45;;;5.90;99.90;;;;;;4960907;28;20505;-76
2022/10/20 00:56:04;;;;;;;17.25;9.50;;;5.90;99.90;;;;;;4961215;28;20031;-76
2022/10/20 00:58:30;;;;;;;12.93;9.30;;;5.90;99.90;;;;;;4963137;28;20034;-76
2022/10/20 01:00:56;;;;;;;14.32;9.10;;;6.00;99.90;;;;;;4946243;28;20033;-76
2022/10/20 01:03:27;;;;;;;20.58;8.75;;;6.00;99.90;;;;;;4964922;28;20058;-77
2022/10/20 01:05:52;;;;;;;17.92;9.13;;;6.00;99.90;;;;;;4950291;28;20071;-77
2022/10/20 01:08:18;;;;;;;18.05;9.68;;;6.10;99.90;;;;;;4968969;28;20120;-76
2022/10/20 01:11:08;;;;;;;15.57;9.93;;;6.00;99.90;;;;;;4947273;28;20457;-76
2022/10/20 01:13:56;;;;;;;13.65;9.05;;;6.00;99.90;;;;;;4979055;28;20370;-77
2022/10/20 01:16:42;;;;;;;16.92;7.40;;;5.90;99.90;;;;;;4980709;28;20123;-77
2022/10/20 01:19:28;;;;;;;16.85;8.40;;;5.90;99.90;;;;;;4964764;28;20389;-76
2022/10/20 01:22:12;;;;;;;16.88;8.98;;;5.90;99.90;;;;;;4966470;28;20548;-76
2022/10/20 01:24:45;;;;;;;13.40;9.30;;;6.00;99.90;;;;;;4945429;28;20046;-77
2022/10/20 01:27:14;;;;;;;26.35;10.00;;;5.90;99.90;;;;;;4960277;28;20108;-76
2022/10/20 01:29:48;;;;;;;15.05;9.13;;;5.90;99.90;;;;;;4963531;28;20507;-76
2022/10/20 01:32:21;;;;;;;21.27;9.45;;;5.90;99.90;;;;;;4964402;28;20401;-76
2022/10/20 01:35:16;;;;;;;14.32;9.85;;;5.80;99.90;;;;;;4946026;28;20039;-76
2022/10/20 01:37:50;;;;;;;13.73;9.32;;;5.80;99.90;;;;;;4966112;28;20038;-76
2022/10/20 01:40:26;;;;;;;15.57;9.90;;;5.80;99.90;;;;;;4952049;28;20522;-76
2022/10/20 01:42:52;;;;;;;17.77;10.27;;;5.70;99.90;;;;;;4978752;28;20510;-76
2022/10/20 01:45:18;;;;;;;16.15;9.65;;;5.90;99.90;;;;;;4936281;28;20030;-77
2022/10/20 01:47:44;;;;;;;15.85;9.88;;;5.70;99.90;;;;;;4955401;28;20369;-76
2022/10/20 01:50:09;;;;;;;17.58;9.38;;;5.70;99.90;;;;;;4963486;28;20034;-76
2022/10/20 01:52:35;;;;;;;17.92;10.25;;;5.70;99.90;;;;;;4936198;28;20062;-75
2022/10/20 01:55:00;;;;;;;15.95;10.73;;;5.60;99.90;;;;;;4949391;28;20030;-77
2022/10/20 01:57:58;;;;;;;17.77;11.88;;;5.60;99.90;;;;;;4981508;28;20177;-76
2022/10/20 02:00:23;;;;;;;15.88;10.23;;;5.70;99.90;;;;;;4946157;28;20031;-76
2022/10/20 02:03:04;;;;;;;20.02;11.27;;;5.80;99.90;;;;;;4949427;28;20034;-76
2022/10/20 02:05:38;;;;;;;17.92;11.27;;;5.80;99.90;;;;;;4986040;28;20061;-76
2022/10/20 02:08:06;;;;;;;22.65;12.68;;;5.80;99.90;;;;;;4985159;28;20031;-76
2022/10/20 02:10:38;;;;;;;17.67;10.65;;;5.80;99.90;;;;;;4955966;28;20038;-76
2022/10/20 02:13:03;;;;;;;19.38;9.75;;;5.80;99.90;;;;;;4954886;28;20485;-76
2022/10/20 02:15:29;;;;;;;17.13;10.05;;;5.80;99.90;;;;;;4950610;28;20101;-76
2022/10/20 02:18:00;;;;;;;16.60;9.63;;;5.80;99.90;;;;;;4952762;28;20113;-76
2022/10/20 02:20:26;;;;;;;19.88;9.27;;;5.70;99.90;;;;;;4954938;28;20077;-76
2022/10/20 02:22:52;;;;;;;16.20;9.20;;;5.60;99.90;;;;;;4939422;28;20494;-77
2022/10/20 02:25:17;;;;;;;14.55;10.32;;;5.50;99.90;;;;;;4968570;28;20104;-76
2022/10/20 02:27:45;;;;;;;19.08;10.70;;;5.50;99.90;;;;;;4970097;28;20027;-77
2022/10/20 02:30:12;;;;;;;24.00;12.32;;;5.50;99.90;;;;;;4951973;28;20038;-77
2022/10/20 02:32:38;;;;;;;20.52;12.73;;;5.60;99.90;;;;;;4954815;28;20046;-77
2022/10/20 02:35:05;;;;;;;21.48;11.65;;;5.60;99.90;;;;;;4942369;28;20617;-77
2022/10/20 02:37:31;;;;;;;23.17;11.98;;;5.70;99.90;;;;;;4951313;28;20034;-78
2022/10/20 02:39:56;;;;;;;22.17;12.02;;;5.80;99.90;;;;;;4981809;28;20053;-77
2022/10/20 02:42:22;;;;;;;22.00;13.02;;;5.70;99.90;;;;;;4970202;28;20065;-77
2022/10/20 02:44:47;;;;;;;22.60;12.45;;;5.70;99.90;;;;;;4983939;28;20034;-77
2022/10/20 02:47:13;;;;;;;21.65;12.48;;;5.80;99.90;;;;;;4968018;28;20027;-78
2022/10/20 02:49:38;;;;;;;21.55;11.35;;;5.80;99.90;;;;;;4981824;28;20824;-78
2022/10/20 02:52:04;;;;;;;16.45;9.82;;;5.90;99.90;;;;;;4969703;28;20597;-78
2022/10/20 02:54:29;;;;;;;13.95;9.98;;;5.80;99.90;;;;;;4964581;28;20027;-77
2022/10/20 02:56:55;;;;;;;18.85;11.52;;;5.80;99.90;;;;;;4959596;28;20026;-77
2022/10/20 02:59:20;;;;;;;18.45;10.30;;;5.80;99.90;;;;;;4981553;28;20034;-77
2022/10/20 03:01:46;;;;;;;16.52;10.55;;;5.80;99.90;;;;;;4960031;28;20034;-77
2022/10/20 03:04:12;;;;;;;16.15;10.68;;;5.70;99.90;;;;;;4965369;28;20042;-77
2022/10/20 03:06:38;;;;;;;23.15;11.45;;;5.80;99.90;;;;;;4968622;28;20042;-76
2022/10/20 03:09:04;;;;;;;17.67;11.02;;;5.70;99.90;;;;;;4939655;28;20037;-76
2022/10/20 03:11:30;;;;;;;22.38;12.95;;;5.80;99.90;;;;;;4983339;28;20544;-77
2022/10/20 03:13:55;;;;;;;19.88;13.35;;;5.80;99.90;;;;;;4965905;28;20035;-77
2022/10/20 03:16:21;;;;;;;18.95;11.98;;;5.90;99.90;;;;;;4958898;28;20081;-77
2022/10/20 03:18:46;;;;;;;19.27;11.23;;;5.90;99.90;;;;;;4968842;28;20057;-77
2022/10/20 03:21:12;;;;;;;15.43;9.63;;;5.80;99.90;;;;;;4965182;28;20126;-77
2022/10/20 03:23:37;;;;;;;20.90;11.98;;;5.90;99.90;;;;;;4967716;28;20034;-77
2022/10/20 03:26:07;;;;;;;22.83;10.88;;;5.90;99.90;;;;;;4964458;28;20394;-77
2022/10/20 03:28:32;;;;;;;18.33;11.85;;;5.70;99.90;;;;;;4981544;28;20205;-77
2022/10/20 03:30:58;;;;;;;22.42;11.63;;;5.80;99.90;;;;;;4966958;28;20555;-77
2022/10/20 03:33:23;;;;;;;15.55;10.90;;;5.80;99.90;;;;;;4979604;28;20061;-77
2022/10/20 03:35:49;;;;;;;20.85;11.13;;;5.80;99.90;;;;;;4964421;28;20039;-77
2022/10/20 03:38:14;;;;;;;19.38;11.13;;;5.70;99.90;;;;;;4947964;28;20034;-77
2022/10/20 03:40:40;;;;;;;19.13;12.80;;;5.70;99.90;;;;;;4983131;28;20035;-77
2022/10/20 03:43:05;;;;;;;19.95;11.43;;;5.70;99.90;;;;;;4953778;28;20035;-77
2022/10/20 03:45:31;;;;;;;20.60;11.73;;;5.70;99.90;;;;;;4980626;28;20039;-76
2022/10/20 03:47:56;;;;;;;20.30;12.73;;;5.70;99.90;;;;;;4966376;28;20031;-76
2022/10/20 03:50:22;;;;;;;22.60;12.13;;;5.60;99.90;;;;;;4953823;28;20089;-77
2022/10/20 03:52:48;;;;;;;22.75;13.65;;;5.70;99.90;;;;;;4961886;28;20039;-77
2022/10/20 03:55:14;;;;;;;20.20;11.45;;;5.70;99.90;;;;;;4952671;28;20359;-77
2022/10/20 03:57:40;;;;;;;18.05;12.10;;;5.80;99.90;;;;;;4960791;28;20027;-77
2022/10/20 04:00:06;;;;;;;15.55;10.52;;;5.70;99.90;;;;;;4965928;28;20478;-78
2022/10/20 04:02:32;;;;;;;19.83;12.10;;;5.70;99.90;;;;;;4984936;28;20026;-77
2022/10/20 04:04:58;;;;;;;19.23;12.40;;;5.70;99.90;;;;;;4962388;28;20080;-77
2022/10/20 04:07:23;;;;;;;20.30;12.73;;;5.70;99.90;;;;;;4983485;28;20505;-77
2022/10/20 04:09:49;;;;;;;23.52;13.52;;;5.80;99.90;;;;;;4952865;28;20105;-76
2022/10/20 04:12:14;;;;;;;17.98;11.98;;;5.80;99.90;;;;;;4946615;28;20153;-77
2022/10/20 04:14:40;;;;;;;18.58;12.10;;;5.90;99.90;;;;;;4980755;28;20118;-77
2022/10/20 04:17:05;;;;;;;21.45;12.13;;;5.80;99.90;;;;;;4948349;28;20027;-77
2022/10/20 04:19:31;;;;;;;21.33;12.93;;;5.90;99.90;;;;;;4984293;28;20038;-77
2022/10/20 04:21:56;;;;;;;20.13;12.15;;;5.80;99.90;;;;;;4968126;28;20045;-77
2022/10/20 04:24:22;;;;;;;26.17;12.32;;;5.90;99.90;;;;;;4969805;28;20038;-77
2022/10/20 04:26:47;;;;;;;27.50;12.43;;;5.80;99.90;;;;;;4949028;28;20078;-77
2022/10/20 04:29:13;;;;;;;19.77;12.07;;;5.80;99.90;;;;;;4951967;28;20394;-77
2022/10/20 04:31:39;;;;;;;21.27;11.88;;;5.80;99.90;;;;;;4964308;28;20038;-77
2022/10/20 04:34:04;;;;;;;24.83;13.57;;;5.90;99.90;;;;;;4969735;28;20038;-77
2022/10/20 04:36:30;;;;;;;24.40;12.55;;;5.80;99.90;;;;;;4981724;28;20040;-77
2022/10/20 04:38:55;;;;;;;20.70;13.50;;;5.90;99.90;;;;;;4966324;28;20045;-77
2022/10/20 04:41:21;;;;;;;24.40;14.15;;;5.90;99.90;;;;;;4967326;28;20409;-77
2022/10/20 04:43:50;;;;;;;23.35;14.07;;;5.90;99.90;;;;;;4983681;28;20493;-77
2022/10/20 04:46:16;;;;;;;22.25;13.90;;;6.00;99.90;;;;;;4947468;28;20520;-76
2022/10/20 04:48:43;;;;;;;23.08;14.05;;;6.00;99.90;;;;;;4982893;28;20031;-77
2022/10/20 04:51:10;;;;;;;20.63;13.30;;;6.10;99.90;;;;;;4971367;28;20482;-78
2022/10/20 04:53:36;;;;;;;23.95;12.98;;;6.10;99.90;;;;;;4950330;28;20473;-77
2022/10/20 04:56:01;;;;;;;25.35;14.07;;;6.10;99.90;;;;;;4950427;28;20051;-77
2022/10/20 04:58:27;;;;;;;19.63;14.15;;;6.10;99.90;;;;;;4981313;28;20093;-78
2022/10/20 05:00:53;;;;;;;26.73;14.73;;;6.10;99.90;;;;;;4950906;28;20026;-77
2022/10/20 05:03:18;;;;;;;20.60;13.32;;;6.10;99.90;;;;;;4953016;28;20049;-77
2022/10/20 05:05:45;;;;;;;22.80;13.93;;;6.00;99.90;;;;;;4966473;28;20088;-77
2022/10/20 05:08:11;;;;;;;32.72;15.57;;;6.00;99.90;;;;;;4952084;28;20395;-77
2022/10/20 05:10:36;;;;;;;26.17;16.05;;;6.00;99.90;;;;;;4942813;28;20039;-76
2022/10/20 05:13:02;;;;;;;20.38;12.63;;;6.20;99.90;;;;;;4960790;28;20093;-77
2022/10/20 05:15:27;;;;;;;23.65;15.27;;;6.10;99.90;;;;;;4979091;28;20034;-77
2022/10/20 05:17:53;;;;;;;29.45;16.70;;;6.10;99.90;;;;;;4978166;28;20031;-77
2022/10/20 05:20:18;;;;;;;30.00;15.50;;;6.30;99.90;;;;;;4958207;28;20061;-77
2022/10/20 05:22:44;;;;;;;29.45;15.90;;;6.30;99.90;;;;;;4951143;28;20121;-76
2022/10/20 05:25:09;;;;;;;19.38;12.57;;;6.50;99.90;;;;;;4964765;28;20084;-77
2022/10/20 05:27:35;;;;;;;23.45;14.38;;;6.40;99.90;;;;;;4970329;28;20466;-76
2022/10/20 05:30:01;;;;;;;24.08;15.32;;;6.40;99.90;;;;;;4972556;28;20137;-77
2022/10/20 05:32:27;;;;;;;26.15;15.65;;;6.30;99.90;;;;;;4990427;28;20588;-75
2022/10/20 05:34:53;;;;;;;19.05;12.60;;;6.30;99.90;;;;;;4955212;28;20034;-75
2022/10/20 05:37:19;;;;;;;29.58;16.23;;;6.40;99.90;;;;;;4963001;28;20026;-77
2022/10/20 05:39:44;;;;;;;34.95;17.25;;;6.30;99.90;;;;;;4985144;28;20077;-77
2022/10/20 05:42:10;;;;;;;25.45;16.58;;;6.40;99.90;;;;;;4953651;28;20088;-77
2022/10/20 05:44:35;;;;;;;27.05;15.13;;;6.40;99.90;;;;;;4973223;28;20042;-74
2022/10/20 05:47:01;;;;;;;25.58;15.52;;;6.40;99.90;;;;;;4983196;28;20035;-76
2022/10/20 05:49:26;;;;;;;29.63;16.83;;;6.50;99.90;;;;;;4991364;28;20125;-77
2022/10/20 05:51:53;;;;;;;34.58;17.23;;;6.80;99.90;;;;;;4995193;28;20058;-76
2022/10/20 05:54:18;;;;;;;31.42;18.10;;;6.80;99.90;;;;;;4612635;28;10000262;-75
2022/10/20 05:56:44;;;;;;;30.10;17.15;;;7.00;99.90;;;;;;4952750;28;20414;-76
2022/10/20 05:59:10;;;;;;;32.25;16.08;;;6.80;99.90;;;;;;4954794;28;20035;-76
2022/10/20 06:01:53;;;;;;;28.38;15.95;;;6.70;99.90;;;;;;4969737;28;20042;-75
2022/10/20 06:04:23;;;;;;;34.95;18.50;;;6.70;99.90;;;;;;4961083;28;20085;-74
2022/10/20 06:06:49;;;;;;;29.00;16.63;;;6.80;99.90;;;;;;4987897;28;20042;-76
2022/10/20 06:09:15;;;;;;;30.00;17.20;;;6.80;99.90;;;;;;4957899;28;20034;-76
2022/10/20 06:11:40;;;;;;;34.25;17.80;;;6.90;99.90;;;;;;4985951;28;20081;-75
2022/10/20 06:14:07;;;;;;;34.22;17.10;;;7.00;99.90;;;;;;4961966;28;20042;-76
2022/10/20 06:16:32;;;;;;;26.23;13.73;;;7.10;99.90;;;;;;4961288;28;20030;-76
2022/10/20 06:18:58;;;;;;;19.38;11.27;;;7.20;99.90;;;;;;4949420;28;20034;-75
2022/10/20 06:21:26;;;;;;;33.47;17.65;;;7.20;99.90;;;;;;4966502;28;20043;-76
2022/10/20 06:23:52;;;;;;;31.95;17.75;;;7.20;99.90;;;;;;4961186;28;20502;-75
2022/10/20 06:26:21;;;;;;;32.63;17.27;;;7.50;99.90;;;;;;4950491;28;20030;-75
2022/10/20 06:28:49;;;;;;;30.67;18.05;;;7.60;99.90;;;;;;4944383;28;20031;-76
2022/10/20 06:31:20;;;;;;;33.55;17.13;;;7.70;99.90;;;;;;4947875;28;20333;-77
2022/10/20 06:33:46;;;;;;;30.95;17.50;;;7.80;99.90;;;;;;4965683;28;20046;-76
2022/10/20 06:36:11;;;;;;;31.73;17.58;;;8.00;99.90;;;;;;4951925;28;20610;-76
2022/10/20 06:38:38;;;;;;;37.50;18.85;;;8.10;99.90;;;;;;4975657;28;20042;-74
2022/10/20 06:41:04;;;;;;;24.40;15.00;;;8.10;99.90;;;;;;4954277;28;20031;-77
2022/10/20 06:43:30;;;;;;;24.08;13.35;;;8.10;99.90;;;;;;4966219;28;20030;-75
2022/10/20 06:45:56;;;;;;;30.45;16.92;;;8.30;99.90;;;;;;4984744;28;20085;-76
2022/10/20 06:48:22;;;;;;;25.15;11.30;;;8.40;99.90;;;;;;4943544;28;20042;-75
2022/10/20 06:50:48;;;;;;;18.55;9.25;;;8.60;99.90;;;;;;4972117;28;20105;-76
2022/10/20 06:53:13;;;;;;;25.85;12.73;;;8.90;99.90;;;;;;4967108;28;20041;-76
2022/10/20 06:55:41;;;;;;;18.42;10.63;;;9.10;99.90;;;;;;4996137;28;20049;-76
2022/10/20 06:58:07;;;;;;;17.30;10.45;;;9.20;99.90;;;;;;4976628;28;20158;-76
2022/10/20 07:00:33;;;;;;;14.70;9.93;;;9.20;99.90;;;;;;4966546;28;20058;-76
2022/10/20 07:02:59;;;;;;;15.88;10.32;;;9.40;99.90;;;;;;4970378;28;20026;-76
2022/10/20 07:05:25;;;;;;;17.98;10.60;;;9.50;99.90;;;;;;4996211;28;20081;-75
2022/10/20 07:07:53;;;;;;;16.90;10.05;;;9.70;99.90;;;;;;4981896;28;20030;-76
2022/10/20 07:10:19;;;;;;;19.45;11.60;;;9.80;99.90;;;;;;4983761;28;20123;-77
2022/10/20 07:12:44;;;;;;;21.02;11.98;;;9.80;99.90;;;;;;4978808;28;20748;-76
2022/10/20 07:15:10;;;;;;;16.00;10.93;;;10.00;99.90;;;;;;4959339;28;20392;-74
2022/10/20 07:17:35;;;;;;;27.55;13.77;;;10.00;99.90;;;;;;4956145;28;20048;-76
2022/10/20 07:20:01;;;;;;;15.57;10.25;;;10.20;99.90;;;;;;4975044;28;20034;-76
2022/10/20 07:22:26;;;;;;;11.85;8.00;;;10.20;99.90;;;;;;4991337;28;20038;-76
2022/10/20 07:24:52;;;;;;;13.40;8.68;;;10.30;99.90;;;;;;4973836;28;20453;-76
2022/10/20 07:27:18;;;;;;;15.43;9.50;;;10.40;99.90;;;;;;4991133;28;20062;-76
2022/10/20 07:29:46;;;;;;;19.55;10.82;;;10.50;99.90;;;;;;4959225;28;20540;-76
2022/10/20 07:32:11;;;;;;;18.45;10.65;;;10.60;99.90;;;;;;4968227;28;20034;-76
2022/10/20 07:34:37;;;;;;;17.05;10.35;;;10.60;99.90;;;;;;4954932;28;20445;-75
2022/10/20 07:37:02;;;;;;;22.35;12.32;;;10.70;99.90;;;;;;4962387;28;20374;-75
2022/10/20 07:39:34;;;;;;;21.00;11.57;;;10.80;99.90;;;;;;4961504;28;20030;-76
2022/10/20 07:41:59;;;;;;;19.70;10.52;;;10.90;99.90;;;;;;4958985;28;20037;-75
2022/10/20 07:44:25;;;;;;;22.58;12.18;;;10.90;99.90;;;;;;4960021;28;20113;-77
2022/10/20 07:46:51;;;;;;;14.05;9.85;;;11.10;99.90;;;;;;4993158;28;20497;-75
2022/10/20 07:49:16;;;;;;;18.77;12.68;;;11.00;99.90;;;;;;4977939;28;20039;-76
2022/10/20 07:51:42;;;;;;;16.70;11.45;;;11.20;99.90;;;;;;4957666;28;20042;-76
2022/10/20 07:54:07;;;;;;;31.75;13.90;;;11.30;99.90;;;;;;4959209;28;20050;-76
2022/10/20 07:56:34;;;;;;;23.10;14.32;;;11.50;99.90;;;;;;4978589;28;20042;-76
2022/10/20 07:59:00;;;;;;;20.55;12.55;;;11.70;99.90;;;;;;4960722;28;20054;-76
2022/10/20 08:01:26;;;;;;;15.20;10.20;;;11.80;99.90;;;;;;4979829;28;20044;-76
2022/10/20 08:03:51;;;;;;;17.50;12.25;;;11.90;99.90;;;;;;4973608;28;20058;-74
2022/10/20 08:06:17;;;;;;;14.35;10.57;;;12.00;99.90;;;;;;4960255;28;20042;-77
2022/10/20 08:08:43;;;;;;;18.73;12.27;;;12.30;99.90;;;;;;4972646;28;20117;-76
2022/10/20 08:11:08;;;;;;;14.68;10.00;;;12.40;99.90;;;;;;4959617;28;20030;-76
2022/10/20 08:13:34;;;;;;;13.13;10.05;;;12.60;99.90;;;;;;4960988;28;20038;-75
2022/10/20 08:16:00;;;;;;;12.45;8.98;;;12.70;99.90;;;;;;4975795;28;20073;-75
2022/10/20 08:18:25;;;;;;;11.65;8.57;;;12.80;99.90;;;;;;4973726;28;20577;-77
2022/10/20 08:20:51;;;;;;;11.27;7.53;;;12.80;99.90;;;;;;4958467;28;20078;-76
2022/10/20 08:23:16;;;;;;;12.55;8.27;;;12.80;99.90;;;;;;4962840;28;20043;-76
2022/10/20 08:25:42;;;;;;;13.00;8.27;;;13.00;99.90;;;;;;4955775;28;20066;-76
2022/10/20 08:28:08;;;;;;;13.15;8.50;;;13.10;99.90;;;;;;4972082;28;20042;-76
2022/10/20 08:30:33;;;;;;;12.77;8.45;;;13.20;99.90;;;;;;4947867;28;20050;-76
2022/10/20 08:32:59;;;;;;;15.13;7.88;;;13.20;99.90;;;;;;4960243;28;20035;-76
2022/10/20 08:35:25;;;;;;;13.35;7.00;;;13.30;99.90;;;;;;4974972;28;20037;-76
2022/10/20 08:37:50;;;;;;;15.18;7.45;;;13.30;99.90;;;;;;4958052;28;20035;-74
2022/10/20 08:40:24;;;;;;;13.30;8.43;;;13.50;99.90;;;;;;4976129;28;20468;-77
2022/10/20 08:42:49;;;;;;;10.60;6.93;;;13.50;99.90;;;;;;4961686;28;20126;-75
2022/10/20 08:45:17;;;;;;;11.13;6.82;;;13.60;99.90;;;;;;4955580;28;20038;-76
2022/10/20 08:47:43;;;;;;;13.07;7.88;;;13.70;99.90;;;;;;4954675;28;20070;-75
2022/10/20 08:50:10;;;;;;;12.30;6.78;;;13.80;99.90;;;;;;4959551;28;20035;-74
2022/10/20 08:52:37;;;;;;;12.43;6.80;;;13.80;99.90;;;;;;4957864;28;20031;-74
2022/10/20 08:55:03;;;;;;;11.63;6.63;;;14.00;99.90;;;;;;4945694;28;20026;-75
2022/10/20 08:57:30;;;;;;;12.25;7.28;;;14.00;99.90;;;;;;4960321;28;20064;-75
2022/10/20 09:00:19;;;;;;;13.60;6.60;;;14.10;99.90;;;;;;4956457;28;20104;-76
2022/10/20 09:02:48;;;;;;;10.05;6.45;;;14.30;99.90;;;;;;4942312;28;20099;-76
2022/10/20 09:05:15;;;;;;;8.93;6.07;;;14.20;99.90;;;;;;4972401;28;20039;-75
2022/10/20 09:07:41;;;;;;;9.73;6.07;;;14.20;99.90;;;;;;4962343;28;20406;-76
2022/10/20 09:10:32;;;;;;;12.07;6.68;;;14.30;99.90;;;;;;4956878;28;20034;-76
2022/10/20 09:12:58;;;;;;;12.30;6.72;;;14.40;99.90;;;;;;4957290;28;20406;-76
2022/10/20 09:15:25;;;;;;;11.00;6.72;;;14.40;99.90;;;;;;4959207;28;20034;-76
2022/10/20 09:17:55;;;;;;;9.95;6.22;;;14.50;99.90;;;;;;4939644;28;20034;-75
2022/10/20 09:20:33;;;;;;;10.18;6.07;;;14.60;99.90;;;;;;4971452;28;20034;-76
2022/10/20 09:22:58;;;;;;;9.65;6.10;;;14.50;99.90;;;;;;4959124;28;20050;-76
2022/10/20 09:25:26;;;;;;;9.82;5.35;;;14.60;99.90;;;;;;4959758;28;20061;-76
2022/10/20 09:27:52;;;;;;;13.23;6.80;;;14.60;99.90;;;;;;4976247;28;20057;-75
2022/10/20 09:30:22;;;;;;;9.52;5.80;;;14.70;99.90;;;;;;4971385;28;20050;-76
2022/10/20 09:32:48;;;;;;;16.10;7.32;;;14.70;99.90;;;;;;4952213;28;20102;-76
2022/10/20 09:35:14;;;;;;;11.77;6.75;;;14.80;99.90;;;;;;4951023;28;20042;-76
2022/10/20 09:37:40;;;;;;;14.43;6.53;;;14.80;99.90;;;;;;4972396;28;20806;-77
2022/10/20 09:40:12;;;;;;;9.38;6.53;;;14.90;99.90;;;;;;4949569;28;20080;-76
2022/10/20 09:42:40;;;;;;;12.70;7.70;;;14.90;99.90;;;;;;4961450;28;20547;-76
2022/10/20 09:45:11;;;;;;;10.52;5.43;;;14.90;99.90;;;;;;4958820;28;20031;-77
2022/10/20 09:47:38;;;;;;;13.65;5.68;;;14.90;99.90;;;;;;4973048;28;20032;-77
2022/10/20 09:50:04;;;;;;;13.32;5.85;;;15.00;99.90;;;;;;4954173;28;20042;-75
2022/10/20 09:52:33;;;;;;;10.57;5.97;;;15.00;99.90;;;;;;4949292;28;20037;-76
2022/10/20 09:55:06;;;;;;;8.50;6.05;;;15.10;99.90;;;;;;4951448;28;20446;-76
2022/10/20 09:57:32;;;;;;;12.00;6.80;;;15.10;99.90;;;;;;4944155;28;20560;-77
2022/10/20 09:59:58;;;;;;;8.93;6.75;;;15.20;99.90;;;;;;4957572;28;20042;-76
2022/10/20 10:02:28;;;;;;;14.25;6.63;;;15.20;99.90;;;;;;4955586;28;20066;-77
2022/10/20 10:04:54;;;;;;;10.57;5.72;;;15.20;99.90;;;;;;4964862;28;20027;-76
2022/10/20 10:07:25;;;;;;;12.57;5.97;;;15.20;99.90;;;;;;4942437;28;20528;-76
2022/10/20 10:09:58;;;;;;;10.18;6.20;;;15.30;99.90;;;;;;4977512;28;20509;-76
2022/10/20 10:12:27;;;;;;;8.43;6.43;;;15.30;99.90;;;;;;4967512;28;20041;-75
2022/10/20 10:15:07;;;;;;;10.20;5.95;;;15.30;99.90;;;;;;4962622;28;20945;-76
2022/10/20 10:17:40;;;;;;;11.40;6.82;;;15.30;99.90;;;;;;4953268;28;20033;-77
2022/10/20 10:20:11;;;;;;;10.77;6.22;;;15.20;99.90;;;;;;4967920;28;20027;-76
2022/10/20 10:22:38;;;;;;;10.30;6.07;;;15.20;99.90;;;;;;4964625;28;20034;-76
2022/10/20 10:25:05;;;;;;;14.13;6.65;;;15.20;99.90;;;;;;4949742;28;20039;-76
2022/10/20 10:27:33;;;;;;;10.27;5.88;;;15.20;99.90;;;;;;4958225;28;20375;-75
2022/10/20 10:30:28;;;;;;;10.30;5.30;;;15.20;99.90;;;;;;4952221;28;20027;-76
2022/10/20 10:32:53;;;;;;;6.25;4.90;;;15.20;99.90;;;;;;4944337;28;20509;-77
2022/10/20 10:35:30;;;;;;;11.70;6.07;;;15.20;99.90;;;;;;4940664;28;20045;-76
2022/10/20 10:37:55;;;;;;;8.90;5.85;;;15.20;99.90;;;;;;4966367;28;20039;-76
2022/10/20 10:40:35;;;;;;;12.55;5.30;;;15.10;99.90;;;;;;4959479;28;20393;-76
2022/10/20 10:43:30;;;;;;;7.35;5.55;;;15.10;99.90;;;;;;4973939;28;20034;-76
2022/10/20 10:45:57;;;;;;;10.18;6.00;;;15.30;99.90;;;;;;4975306;28;20081;-76
2022/10/20 10:48:29;;;;;;;9.95;6.93;;;15.30;99.90;;;;;;4976588;28;20097;-75
2022/10/20 10:50:59;;;;;;;9.80;6.07;;;15.40;99.90;;;;;;4980855;28;20035;-75
2022/10/20 10:53:52;;;;;;;9.25;6.90;;;15.50;99.90;;;;;;4944921;28;20406;-76
2022/10/20 10:56:50;;;;;;;12.07;7.15;;;15.50;99.90;;;;;;4986939;28;20355;-76
2022/10/20 10:59:23;;;;;;;12.25;7.57;;;15.60;99.90;;;;;;4901250;28;20045;-75
2022/10/20 11:02:19;;;;;;;14.73;8.52;;;15.60;99.90;;;;;;4619862;28;10001200;-76
2022/10/20 11:05:12;;;;;;;12.35;6.93;;;15.60;99.90;;;;;;4978244;28;20041;-75
2022/10/20 11:07:58;;;;;;;9.70;6.75;;;15.60;99.90;;;;;;4987386;28;20107;-76
2022/10/20 11:10:50;;;;;;;12.88;7.65;;;15.60;99.90;;;;;;4969164;28;20061;-76
2022/10/20 11:13:57;;;;;;;11.18;7.80;;;15.60;99.90;;;;;;4955006;28;20489;-77
2022/10/20 11:16:35;;;;;;;10.17;6.63;;;15.60;99.90;;;;;;4904070;28;20034;-76
2022/10/20 11:19:13;;;;;;;8.77;6.05;;;15.70;99.90;;;;;;4951304;28;20309;-77
2022/10/20 11:22:08;;;;;;;11.30;6.97;;;15.70;99.90;;;;;;4953567;28;20035;-76
2022/10/20 11:24:50;;;;;;;11.60;7.90;;;15.60;99.90;;;;;;4979319;28;20118;-75
2022/10/20 11:27:25;;;;;;;13.82;7.32;;;15.70;99.90;;;;;;4954967;28;20034;-76
2022/10/20 11:29:57;;;;;;;12.45;8.13;;;15.70;99.90;;;;;;4957991;28;20030;-76
2022/10/20 11:32:25;;;;;;;15.23;7.50;;;15.70;99.90;;;;;;4969495;28;20038;-77
2022/10/20 11:35:12;;;;;;;13.00;6.60;;;15.70;99.90;;;;;;4956484;28;20034;-76
2022/10/20 11:37:43;;;;;;;12.55;6.65;;;15.70;99.90;;;;;;4966608;28;20072;-77
2022/10/20 11:40:09;;;;;;;13.00;7.45;;;15.70;99.90;;;;;;4944900;28;20027;-77
2022/10/20 11:43:01;;;;;;;10.02;6.15;;;15.80;99.90;;;;;;4991757;28;20552;-76
2022/10/20 11:45:49;;;;;;;11.60;5.85;;;15.80;99.90;;;;;;4980873;28;20734;-77
2022/10/20 11:48:33;;;;;;;10.13;7.05;;;15.80;99.90;;;;;;4958492;28;20065;-77
2022/10/20 11:51:08;;;;;;;8.32;6.75;;;15.90;99.90;;;;;;4963661;28;20584;-77
2022/10/20 11:54:09;;;;;;;9.02;6.10;;;15.80;99.90;;;;;;4969109;28;20592;-77
2022/10/20 11:57:12;;;;;;;11.55;7.25;;;15.80;99.90;;;;;;4974723;28;20136;-76
2022/10/20 11:59:47;;;;;;;14.10;8.23;;;15.80;99.90;;;;;;4990602;28;20127;-77
2022/10/20 12:02:31;;;;;;;17.63;8.60;;;15.70;99.90;;;;;;4987786;28;20034;-76
2022/10/20 12:05:24;;;;;;;12.50;8.25;;;15.70;99.90;;;;;;4991274;28;20066;-76
2022/10/20 12:08:44;;;;;;;9.98;7.22;;;15.60;99.90;;;;;;4988282;28;20046;-77
2022/10/20 12:11:48;;;;;;;16.17;9.02;;;15.40;99.90;;;;;;4881752;29;20176;-77
2022/10/20 12:14:13;;;;;;;14.00;8.57;;;15.30;99.90;;;;;;4974918;28;20046;-76
2022/10/20 12:16:54;;;;;;;13.65;8.77;;;15.30;99.90;;;;;;4985096;28;20121;-77
2022/10/20 12:19:33;;;;;;;13.75;10.38;;;15.10;99.90;;;;;;4989507;28;20038;-76
2022/10/20 12:21:59;;;;;;;16.83;8.85;;;15.00;99.90;;;;;;4973923;28;20705;-76
2022/10/20 12:24:50;;;;;;;9.95;7.60;;;14.90;99.90;;;;;;4972140;28;20121;-77
2022/10/20 12:27:21;;;;;;;11.50;7.60;;;14.80;99.90;;;;;;4967756;28;20031;-76
2022/10/20 12:29:51;;;;;;;14.85;8.63;;;14.70;99.90;;;;;;4945686;28;20091;-77
2022/10/20 12:32:54;;;;;;;10.35;7.32;;;14.70;99.90;;;;;;4956589;28;20034;-77
2022/10/20 12:35:22;;;;;;;15.70;9.35;;;14.60;99.90;;;;;;4972272;28;20049;-76
2022/10/20 12:37:55;;;;;;;17.20;12.00;;;14.50;99.90;;;;;;4985774;28;20031;-77
2022/10/20 12:40:25;;;;;;;19.42;11.15;;;14.50;99.90;;;;;;4974055;28;20034;-77
2022/10/20 12:42:52;;;;;;;19.10;11.52;;;14.50;99.90;;;;;;4951129;28;20066;-76
2022/10/20 12:45:17;;;;;;;14.45;10.05;;;14.40;99.90;;;;;;4957714;28;20074;-77
2022/10/20 12:48:00;;;;;;;10.73;7.45;;;14.40;99.90;;;;;;4987883;28;20042;-77
2022/10/20 12:50:37;;;;;;;19.10;9.73;;;14.40;99.90;;;;;;4972379;28;20035;-77
2022/10/20 12:53:18;;;;;;;17.50;11.90;;;14.30;99.90;;;;;;4967626;28;20058;-77